Time;durP1;ratioP1;P1;durP2;ratioP2;P2;SDS_P1;SDS_P2;PMS_P1;PMS_P2;Temp;Humidity;BMP_temperature;BMP_pressure;BME280_temperature;BME280_humidity;BME280_pressure;Samples;Min_cycle;Max_cycle;Signal;HPM_P1;HPM_P2
2022/06/04 00:01:03;;;;;;;9.73;1.70;;;;;;;16.82;nan;101351.00;5054500;28;20446;-85
2022/06/04 00:03:31;;;;;;;13.63;2.63;;;;;;;16.79;nan;101342.28;5021777;28;20477;-85
2022/06/04 00:05:59;;;;;;;9.30;2.00;;;;;;;16.76;nan;101345.50;5054257;28;20477;-85
2022/06/04 00:08:29;;;;;;;9.47;2.57;;;;;;;16.76;nan;101345.50;5053812;28;21123;-85
2022/06/04 00:16:29;;;;;;;12.20;2.90;;;;;;;16.73;nan;101343.19;5054103;28;20604;-86
2022/06/04 00:18:58;;;;;;;13.77;2.47;;;;;;;16.71;nan;101343.41;5054070;28;20461;-85
2022/06/04 00:21:26;;;;;;;15.30;2.57;;;;;;;16.80;nan;101349.50;5037685;28;20515;-85
2022/06/04 00:23:53;;;;;;;12.50;3.00;;;;;;;16.81;nan;101341.00;5037401;28;20463;-85
2022/06/04 00:26:21;;;;;;;11.07;2.90;;;;;;;16.83;nan;101340.78;5037714;28;20568;-85
2022/06/04 00:28:49;;;;;;;17.83;4.03;;;;;;;16.81;nan;101335.50;5037416;28;20525;-86
2022/06/04 00:31:18;;;;;;;11.73;2.37;;;;;;;16.83;nan;101329.75;5037472;28;20504;-86
2022/06/04 00:33:46;;;;;;;11.60;2.60;;;;;;;16.79;nan;101339.53;4974174;28;20992;-86
2022/06/04 00:36:13;;;;;;;14.17;3.73;;;;;;;16.72;nan;101324.94;4942472;28;20450;-86
2022/06/04 00:38:41;;;;;;;17.33;3.43;;;;;;;16.72;nan;101322.19;4958241;28;20458;-85
2022/06/04 00:41:29;;;;;;;13.50;2.60;;;;;;;16.73;nan;101324.72;4958029;28;20454;-85
2022/06/04 00:44:01;;;;;;;19.40;3.00;;;;;;;16.71;nan;101326.00;4973889;28;20843;-85
2022/06/04 00:46:40;;;;;;;11.17;2.60;;;;;;;16.66;nan;101323.91;4973707;28;20458;-85
2022/06/04 00:49:09;;;;;;;15.17;2.43;;;;;;;16.52;nan;101328.59;4973856;28;20449;-85
2022/06/04 00:51:37;;;;;;;11.27;2.07;;;;;;;16.41;nan;101315.47;4987622;28;20476;-85
2022/06/04 00:54:05;;;;;;;16.20;2.60;;;;;;;16.38;nan;101332.44;5053520;28;20476;-85
2022/06/04 00:56:48;;;;;;;14.83;2.30;;;;;;;16.34;nan;101325.69;5052834;28;20438;-86
2022/06/04 00:59:41;;;;;;;14.50;3.10;;;;;;;16.32;nan;101324.22;5069633;28;20442;-85
2022/06/04 01:02:30;;;;;;;13.53;3.20;;;;;;;16.29;nan;101322.75;5053100;28;20527;-85
2022/06/04 01:05:31;;;;;;;12.50;2.50;;;;;;;16.29;nan;101314.47;5036520;28;20471;-85
2022/06/04 01:08:18;;;;;;;17.00;2.43;;;;;;;16.30;nan;101313.41;5054267;28;20459;-85
2022/06/04 01:10:49;;;;;;;16.33;2.53;;;;;;;16.27;nan;101308.31;5052962;28;20450;-85
2022/06/04 01:13:54;;;;;;;10.40;2.40;;;;;;;16.29;nan;101308.94;5069391;28;20450;-85
2022/06/04 01:16:45;;;;;;;13.70;2.73;;;;;;;16.33;nan;101306.59;5012433;28;20460;-85
2022/06/04 01:19:32;;;;;;;16.50;2.73;;;;;;;16.37;nan;101305.94;5036407;28;20454;-85
2022/06/04 01:22:31;;;;;;;12.77;2.50;;;;;;;16.40;nan;101302.75;5069210;28;20507;-85
2022/06/04 01:25:10;;;;;;;7.17;2.07;;;;;;;16.46;nan;101299.13;5052887;28;20455;-85
2022/06/04 01:27:47;;;;;;;22.37;2.67;;;;;;;16.48;nan;101293.38;5052632;28;20453;-86
2022/06/04 01:30:39;;;;;;;10.77;2.37;;;;;;;16.46;nan;101296.34;5035880;28;20454;-86
2022/06/04 01:33:31;;;;;;;10.97;3.50;;;;;;;16.46;nan;101301.03;5044284;28;20454;-85
2022/06/04 01:36:06;;;;;;;15.83;2.80;;;;;;;16.47;nan;101311.84;5044432;28;20957;-86
2022/06/04 01:38:42;;;;;;;12.20;2.40;;;;;;;16.37;nan;101302.31;5036140;28;20452;-86
2022/06/04 01:41:41;;;;;;;13.40;2.87;;;;;;;16.45;nan;101313.13;5037399;28;21021;-86
2022/06/04 01:44:12;;;;;;;10.63;2.93;;;;;;;16.41;nan;101304.44;5031412;28;20567;-86
2022/06/04 01:46:45;;;;;;;19.63;2.73;;;;;;;16.41;nan;101320.13;5052455;28;20515;-86
2022/06/04 01:49:18;;;;;;;14.07;2.83;;;;;;;16.41;nan;101317.38;5020545;28;20503;-86
2022/06/04 01:51:47;;;;;;;12.07;2.57;;;;;;;16.38;nan;101315.91;5036230;28;20446;-85
2022/06/04 01:54:24;;;;;;;13.10;2.77;;;;;;;16.36;nan;101306.16;5052308;28;20463;-85
2022/06/04 01:56:56;;;;;;;16.90;3.00;;;;;;;16.39;nan;101305.72;5052514;28;20442;-86
2022/06/04 01:59:39;;;;;;;9.83;2.50;;;;;;;16.39;nan;101312.06;5036030;28;20450;-85
2022/06/04 02:02:11;;;;;;;10.17;2.80;;;;;;;16.38;nan;101309.53;5037016;28;20457;-86
2022/06/04 02:04:40;;;;;;;17.37;2.63;;;;;;;16.36;nan;101306.16;5039393;28;20473;-85
2022/06/04 02:10:09;;;;;;;30.13;3.80;;;;;;;16.31;nan;101306.81;5058162;28;20442;-85
2022/06/04 02:12:38;;;;;;;13.33;2.13;;;;;;;16.32;nan;101311.28;5055577;28;20947;-85
2022/06/04 02:15:12;;;;;;;13.17;2.00;;;;;;;16.28;nan;101311.91;5039081;28;20460;-85
2022/06/04 02:17:41;;;;;;;14.40;2.37;;;;;;;16.23;nan;101301.53;5038955;28;20453;-86
2022/06/04 02:20:10;;;;;;;12.07;3.27;;;;;;;16.23;nan;101301.53;5071671;28;21068;-85
2022/06/04 02:22:37;;;;;;;9.43;2.33;;;;;;;16.26;nan;101312.13;5038973;28;20473;-85
2022/06/04 02:25:06;;;;;;;16.53;3.10;;;;;;;16.29;nan;101316.38;5039025;28;20939;-85
2022/06/04 02:27:34;;;;;;;17.20;2.47;;;;;;;16.31;nan;101319.78;5038899;28;20609;-85
2022/06/04 02:30:02;;;;;;;14.40;2.93;;;;;;;16.33;nan;101317.63;5055409;28;20445;-86
2022/06/04 02:32:45;;;;;;;11.63;2.07;;;;;;;16.32;nan;101325.06;5038870;28;20450;-86
2022/06/04 02:35:19;;;;;;;21.33;3.23;;;;;;;16.30;nan;101320.84;5038848;28;20446;-85
2022/06/04 02:38:04;;;;;;;12.13;1.90;;;;;;;16.30;nan;101312.56;5071685;28;20851;-85
2022/06/04 02:40:38;;;;;;;11.97;2.37;;;;;;;16.25;nan;101304.94;5057259;28;20532;-85
2022/06/04 02:43:13;;;;;;;13.97;3.10;;;;;;;16.33;nan;101314.88;5042596;28;20987;-85
2022/06/04 02:45:44;;;;;;;8.73;2.03;;;;;;;16.30;nan;101313.41;5076816;28;20533;-86
2022/06/04 02:48:20;;;;;;;19.07;3.07;;;;;;;16.36;nan;101322.69;5059380;28;20458;-85
2022/06/04 02:51:11;;;;;;;16.37;3.30;;;;;;;16.36;nan;101328.22;5075893;28;20453;-86
2022/06/04 02:53:39;;;;;;;14.70;2.30;;;;;;;16.36;nan;101326.31;5059443;28;20441;-85
2022/06/04 02:56:09;;;;;;;19.20;4.30;;;;;;;16.34;nan;101325.69;5042502;28;20461;-84
2022/06/04 02:58:38;;;;;;;12.93;2.27;;;;;;;16.36;nan;101325.47;5042596;28;20449;-84
2022/06/04 03:01:08;;;;;;;19.27;2.97;;;;;;;16.41;nan;101326.50;5042755;28;20509;-84
2022/06/04 03:03:37;;;;;;;7.27;2.10;;;;;;;16.46;nan;101315.66;5059275;28;20527;-85
2022/06/04 03:06:08;;;;;;;16.00;3.00;;;;;;;16.51;nan;101318.63;5058755;28;20467;-84
2022/06/04 03:08:38;;;;;;;13.47;2.30;;;;;;;16.51;nan;101317.78;5059198;28;20446;-84
2022/06/04 03:11:05;;;;;;;15.40;2.93;;;;;;;16.50;nan;101313.31;5042543;28;20437;-84
2022/06/04 03:13:33;;;;;;;9.40;2.30;;;;;;;16.52;nan;101309.28;5042456;28;20457;-84
2022/06/04 03:16:00;;;;;;;10.40;2.13;;;;;;;16.51;nan;101321.38;5042376;28;20454;-84
2022/06/04 03:18:28;;;;;;;6.97;2.03;;;;;;;16.41;nan;101298.91;5042232;28;20461;-85
2022/06/04 03:20:55;;;;;;;12.40;3.00;;;;;;;16.44;nan;101309.53;5053134;28;20465;-84
2022/06/04 03:23:23;;;;;;;16.23;2.80;;;;;;;16.42;nan;101300.63;5025825;28;21042;-84
2022/06/04 03:25:50;;;;;;;10.03;2.27;;;;;;;16.41;nan;101293.41;5058651;28;20450;-84
2022/06/04 03:28:18;;;;;;;11.40;2.33;;;;;;;16.52;nan;101314.81;5025772;28;20476;-84
2022/06/04 03:30:45;;;;;;;12.20;2.63;;;;;;;16.54;nan;101314.59;5041951;28;20450;-85
2022/06/04 03:33:13;;;;;;;10.33;1.93;;;;;;;16.54;nan;101315.44;5042153;28;20447;-84
2022/06/04 03:35:42;;;;;;;12.20;2.30;;;;;;;16.54;nan;101315.44;5026051;28;20449;-85
2022/06/04 03:38:10;;;;;;;10.87;2.80;;;;;;;16.54;nan;101309.06;5025716;28;20482;-84
2022/06/04 03:40:38;;;;;;;20.43;2.43;;;;;;;16.57;nan;101317.72;5025685;28;20456;-84
2022/06/04 03:43:05;;;;;;;6.50;2.10;;;;;;;16.56;nan;101320.72;5025464;28;20490;-84
2022/06/04 03:45:34;;;;;;;18.57;2.37;;;;;;;16.51;nan;101298.47;5025144;28;20951;-86
2022/06/04 03:48:01;;;;;;;12.33;2.00;;;;;;;16.53;nan;101302.69;5041652;28;20829;-84
2022/06/04 03:50:29;;;;;;;13.27;2.00;;;;;;;16.57;nan;101314.97;5025365;28;20490;-84
2022/06/04 03:52:57;;;;;;;21.17;3.40;;;;;;;16.59;nan;101307.31;5025168;28;20495;-84
2022/06/04 03:55:25;;;;;;;13.93;2.97;;;;;;;16.61;nan;101309.03;5041851;28;20440;-84
2022/06/04 03:57:53;;;;;;;11.00;2.30;;;;;;;16.59;nan;101314.75;5025446;28;20488;-85
2022/06/04 04:00:29;;;;;;;16.67;2.90;;;;;;;16.58;nan;101316.66;5025093;28;20940;-85
2022/06/04 04:03:02;;;;;;;8.37;2.10;;;;;;;16.55;nan;101305.22;5059151;28;20469;-85
2022/06/04 04:05:35;;;;;;;13.10;2.90;;;;;;;16.49;nan;101297.84;5037891;28;20481;-84
2022/06/04 04:08:05;;;;;;;9.77;1.90;;;;;;;16.57;nan;101309.44;5038042;28;20983;-84
2022/06/04 04:10:33;;;;;;;11.53;2.10;;;;;;;16.54;nan;101307.16;5038091;28;20460;-85
2022/06/04 04:13:01;;;;;;;14.00;2.17;;;;;;;16.52;nan;101306.53;5054562;28;20929;-85
2022/06/04 04:15:29;;;;;;;10.50;2.03;;;;;;;16.49;nan;101306.97;5054456;28;20453;-85
2022/06/04 04:17:57;;;;;;;19.20;2.53;;;;;;;16.48;nan;101315.44;5037806;28;20817;-85
2022/06/04 04:20:26;;;;;;;13.37;2.73;;;;;;;16.39;nan;101306.56;5037678;28;20508;-85
2022/06/04 04:22:54;;;;;;;11.87;2.50;;;;;;;16.46;nan;101317.59;5037841;28;20488;-84
2022/06/04 04:25:24;;;;;;;13.80;2.67;;;;;;;16.43;nan;101318.88;5021441;28;20476;-85
2022/06/04 04:27:52;;;;;;;12.50;2.30;;;;;;;16.40;nan;101322.06;5054183;28;20816;-84
2022/06/04 04:30:21;;;;;;;9.50;2.30;;;;;;;16.39;nan;101334.16;5021129;28;20857;-84
2022/06/04 04:32:49;;;;;;;13.23;2.30;;;;;;;16.36;nan;101333.72;5037192;28;20454;-84
2022/06/04 04:35:22;;;;;;;14.07;2.70;;;;;;;16.31;nan;101330.81;5053762;28;20453;-85
2022/06/04 04:37:50;;;;;;;9.23;1.93;;;;;;;16.31;nan;101328.91;5037287;28;20450;-85
2022/06/04 04:40:19;;;;;;;12.53;2.33;;;;;;;16.18;nan;101318.72;5021110;28;20443;-85
2022/06/04 04:42:50;;;;;;;17.20;2.70;;;;;;;16.24;nan;101331.66;5054776;28;20451;-85
2022/06/04 04:45:19;;;;;;;17.50;2.97;;;;;;;16.24;nan;101333.56;5021904;28;20442;-85
2022/06/04 04:47:46;;;;;;;10.47;2.20;;;;;;;16.22;nan;101333.78;5053714;28;20451;-84
2022/06/04 04:50:22;;;;;;;7.13;1.77;;;;;;;16.19;nan;101341.63;5037182;28;20450;-84
2022/06/04 04:52:50;;;;;;;11.53;1.93;;;;;;;16.14;nan;101335.94;5037513;28;20454;-85
2022/06/04 04:55:18;;;;;;;11.30;2.13;;;;;;;16.12;nan;101343.59;5037093;28;20480;-85
2022/06/04 04:57:45;;;;;;;13.07;2.33;;;;;;;16.07;nan;101346.13;5020715;28;20446;-84
2022/06/04 05:00:15;;;;;;;9.27;2.63;;;;;;;16.03;nan;101339.34;5036936;28;20454;-84
2022/06/04 05:02:43;;;;;;;13.83;3.17;;;;;;;16.02;nan;101354.19;5037139;28;20504;-84
2022/06/04 05:05:12;;;;;;;9.73;2.13;;;;;;;15.97;nan;101351.25;5035253;28;20508;-84
2022/06/04 05:07:40;;;;;;;9.37;2.70;;;;;;;15.96;nan;101366.09;5036074;28;20442;-84
2022/06/04 05:10:09;;;;;;;12.63;2.00;;;;;;;15.85;nan;101365.66;5035881;28;20454;-84
2022/06/04 05:12:36;;;;;;;9.07;2.23;;;;;;;15.80;nan;101365.44;5052269;28;20457;-84
2022/06/04 05:15:05;;;;;;;12.73;3.20;;;;;;;15.81;nan;101369.91;5035770;28;20507;-84
2022/06/04 05:17:33;;;;;;;22.67;3.30;;;;;;;15.80;nan;101359.94;5019453;28;20446;-84
2022/06/04 05:20:00;;;;;;;7.73;1.93;;;;;;;15.82;nan;101365.25;5018263;28;20454;-85
2022/06/04 05:22:28;;;;;;;11.30;2.30;;;;;;;15.77;nan;101354.03;5051897;28;20454;-85
2022/06/04 05:24:55;;;;;;;10.80;2.47;;;;;;;15.79;nan;101363.75;5035404;28;20828;-85
2022/06/04 05:27:23;;;;;;;10.20;2.20;;;;;;;15.69;nan;101344.06;5035514;28;20476;-85
2022/06/04 05:29:50;;;;;;;10.60;2.80;;;;;;;15.71;nan;101350.22;5051944;28;20941;-85
2022/06/04 05:32:18;;;;;;;14.00;2.60;;;;;;;15.80;nan;101373.72;5035387;28;20555;-85
2022/06/04 05:34:45;;;;;;;15.43;3.00;;;;;;;15.82;nan;101368.84;5019111;28;20450;-85
2022/06/04 05:37:13;;;;;;;10.83;2.40;;;;;;;15.82;nan;101362.50;5035631;28;20545;-85
2022/06/04 05:39:41;;;;;;;11.50;2.73;;;;;;;15.83;nan;101378.81;5035394;28;20953;-84
2022/06/04 05:42:09;;;;;;;8.33;2.00;;;;;;;15.81;nan;101375.41;5035412;28;20450;-84
2022/06/04 05:44:37;;;;;;;10.33;2.70;;;;;;;15.80;nan;101373.72;5035305;28;20953;-85
2022/06/04 05:47:04;;;;;;;10.93;3.20;;;;;;;15.79;nan;101371.19;5051632;28;20453;-85
2022/06/04 05:49:32;;;;;;;22.23;2.83;;;;;;;15.83;nan;101366.94;5035193;28;20447;-84
2022/06/04 05:52:00;;;;;;;11.40;2.67;;;;;;;15.88;nan;101379.03;5035432;28;20451;-84
2022/06/04 05:54:28;;;;;;;7.33;2.20;;;;;;;15.96;nan;101382.66;5035484;28;20443;-84
2022/06/04 05:56:55;;;;;;;17.30;2.93;;;;;;;16.03;nan;101386.22;5018911;28;20447;-84
2022/06/04 05:59:23;;;;;;;12.10;2.53;;;;;;;16.07;nan;101373.72;5035119;28;20944;-84
2022/06/04 06:01:51;;;;;;;14.50;3.33;;;;;;;16.12;nan;101382.19;5051569;28;20461;-85
2022/06/04 06:04:20;;;;;;;15.03;3.23;;;;;;;16.14;nan;101383.69;4957018;28;2234036;-85
2022/06/04 06:06:49;;;;;;;17.50;2.73;;;;;;;16.26;nan;101375.59;5023262;28;21022;-85
2022/06/04 06:09:19;;;;;;;12.13;2.60;;;;;;;16.39;nan;101382.97;5023335;28;20457;-84
2022/06/04 06:11:48;;;;;;;11.20;2.30;;;;;;;16.48;nan;101388.03;5022839;28;20453;-84
2022/06/04 06:14:16;;;;;;;11.70;3.30;;;;;;;16.55;nan;101388.84;5039560;28;20950;-84
2022/06/04 06:16:45;;;;;;;13.57;2.40;;;;;;;16.62;nan;101382.47;5022871;28;20446;-85
2022/06/04 06:19:14;;;;;;;10.50;3.00;;;;;;;16.64;nan;101383.13;5022688;28;20450;-84
2022/06/04 06:21:42;;;;;;;13.60;2.90;;;;;;;16.71;nan;101393.09;5039041;28;20449;-84
2022/06/04 06:24:10;;;;;;;10.47;2.60;;;;;;;16.76;nan;101393.28;5022689;28;20478;-84
2022/06/04 06:26:46;;;;;;;11.43;2.80;;;;;;;16.82;nan;101386.88;5038914;28;20518;-85
2022/06/04 06:29:15;;;;;;;16.17;3.10;;;;;;;16.92;nan;101392.78;5023084;28;20943;-84
2022/06/04 06:31:42;;;;;;;11.73;2.80;;;;;;;16.98;nan;101388.28;5023080;28;20444;-84
2022/06/04 06:34:10;;;;;;;18.50;2.77;;;;;;;17.08;nan;101391.44;5022922;28;20855;-84
2022/06/04 06:36:38;;;;;;;12.93;2.90;;;;;;;17.12;nan;101384.41;5038567;28;20519;-84
2022/06/04 06:39:07;;;;;;;14.33;3.07;;;;;;;17.23;nan;101394.75;5038619;28;20450;-85
2022/06/04 06:41:35;;;;;;;14.70;2.87;;;;;;;17.23;nan;101385.59;5055386;28;20963;-85
2022/06/04 06:44:03;;;;;;;11.83;2.90;;;;;;;17.35;nan;101391.25;5022587;28;20518;-84
2022/06/04 06:46:36;;;;;;;13.83;3.20;;;;;;;17.41;nan;101398.66;5039005;28;20446;-84
2022/06/04 06:49:07;;;;;;;24.83;3.30;;;;;;;17.52;nan;101406.22;5038854;28;20527;-84
2022/06/04 06:51:40;;;;;;;15.83;2.70;;;;;;;17.54;nan;101390.28;5038880;28;20463;-85
2022/06/04 06:54:08;;;;;;;17.90;3.30;;;;;;;17.70;nan;101400.84;5022856;28;20534;-83
2022/06/04 06:56:38;;;;;;;24.27;3.47;;;;;;;17.80;nan;101403.94;5022719;28;20453;-85
2022/06/04 06:59:07;;;;;;;13.30;3.37;;;;;;;17.87;nan;101404.72;5038798;28;20454;-84
2022/06/04 07:01:36;;;;;;;14.10;3.00;;;;;;;17.90;nan;101406.16;5038661;28;20457;-84
2022/06/04 07:04:04;;;;;;;17.67;3.47;;;;;;;17.90;nan;101397.88;5038733;28;20481;-85
2022/06/04 07:06:36;;;;;;;13.77;3.07;;;;;;;17.94;nan;101411.03;5033898;28;20469;-85
2022/06/04 07:09:07;;;;;;;18.93;5.10;;;;;;;17.98;nan;101402.28;5035005;28;20945;-85
2022/06/04 07:11:34;;;;;;;17.50;4.43;;;;;;;18.06;nan;101411.16;5035318;28;20458;-84
2022/06/04 07:14:02;;;;;;;15.97;3.50;;;;;;;18.13;nan;101414.69;5002802;28;20443;-84
2022/06/04 07:16:30;;;;;;;22.23;3.47;;;;;;;18.14;nan;101404.47;5018661;28;20819;-85
2022/06/04 07:19:00;;;;;;;12.50;3.47;;;;;;;18.31;nan;101416.66;5034609;28;20463;-84
2022/06/04 07:21:28;;;;;;;19.47;4.17;;;;;;;18.45;nan;101428.44;5017734;28;20523;-85
2022/06/04 07:23:56;;;;;;;14.73;3.33;;;;;;;18.58;nan;101426.38;5034954;28;20478;-85
2022/06/04 07:26:25;;;;;;;18.83;3.90;;;;;;;18.78;nan;101422.56;5034699;28;20442;-86
2022/06/04 07:28:54;;;;;;;28.17;4.10;;;;;;;19.01;nan;101428.25;5038384;28;20450;-86
2022/06/04 07:31:24;;;;;;;12.90;3.03;;;;;;;19.18;nan;101423.75;5038739;28;20462;-85
2022/06/04 08:47:14;;;;;;;9.87;2.03;;;;;;;21.52;nan;101441.31;5055810;28;20422;-90
2022/06/04 08:57:42;;;;;;;15.63;2.60;;;;;;;22.27;nan;101437.34;4898191;29;21028;-90
2022/06/04 09:00:52;;;;;;;13.47;2.20;;;;;;;22.42;nan;101426.41;4898006;29;20516;-90
2022/06/04 09:03:42;;;;;;;13.63;2.93;;;;;;;22.67;nan;101437.94;4880195;29;20454;-90
2022/06/04 09:06:41;;;;;;;17.67;2.83;;;;;;;22.87;nan;101428.22;4882649;29;20505;-90
2022/06/04 09:09:22;;;;;;;10.50;2.13;;;;;;;23.25;nan;101447.66;4889382;29;20541;-90
2022/06/04 09:12:03;;;;;;;15.60;2.20;;;;;;;23.39;nan;101440.56;4882712;29;20449;-91
2022/06/04 09:14:44;;;;;;;12.70;2.10;;;;;;;23.56;nan;101429.31;4882907;29;20516;-90
2022/06/04 09:17:21;;;;;;;11.43;2.07;;;;;;;23.63;nan;101441.13;4883173;29;20810;-91
2022/06/04 09:20:00;;;;;;;14.87;2.37;;;;;;;23.63;nan;101451.44;4883041;29;20815;-89
2022/06/04 09:22:37;;;;;;;13.27;2.53;;;;;;;23.48;nan;101448.44;4898286;29;20456;-89
2022/06/04 09:25:16;;;;;;;9.83;1.90;;;;;;;23.31;nan;101452.16;4897324;29;21035;-90
2022/06/04 09:27:55;;;;;;;11.87;2.17;;;;;;;23.17;nan;101464.84;4897740;29;20463;-90
2022/06/04 09:30:39;;;;;;;13.40;2.40;;;;;;;22.85;nan;101456.34;4882493;29;20887;-93
2022/06/04 09:33:47;;;;;;;18.23;2.23;;;;;;;22.71;nan;101466.97;4936358;28;20512;-92
2022/06/04 09:52:45;;;;;;;13.43;2.10;;;;;;;22.46;nan;101482.47;5056231;28;20452;-89
2022/06/04 09:55:30;;;;;;;12.67;2.23;;;;;;;22.36;nan;101464.50;5032615;28;20775;-90
2022/06/04 09:58:20;;;;;;;14.33;2.17;;;;;;;22.41;nan;101477.66;5019735;28;20443;-88
2022/06/04 10:00:56;;;;;;;16.77;2.47;;;;;;;22.35;nan;101473.09;5022667;28;20446;-87
2022/06/04 10:03:23;;;;;;;12.77;2.27;;;;;;;22.31;nan;101480.31;5019894;28;20506;-88
2022/06/04 10:06:04;;;;;;;7.60;1.90;;;;;;;22.34;nan;101488.13;5019639;28;20482;-85
2022/06/04 10:09:54;;;;;;;13.80;2.30;;;;;;;22.60;nan;101479.06;5021325;28;20460;-85
2022/06/04 10:11:23;;;;;;;10.67;2.27;;;;;;;23.04;nan;101493.97;5024674;28;20458;-85
2022/06/04 10:13:53;;;;;;;11.20;2.47;;;;;;;23.27;nan;101498.44;5019788;28;20450;-84
2022/06/04 10:16:40;;;;;;;16.63;2.60;;;;;;;23.36;nan;101498.81;5019641;28;20523;-86
2022/06/04 10:19:16;;;;;;;12.10;2.20;;;;;;;23.57;nan;101502.72;5005604;28;20445;-86
2022/06/04 10:21:46;;;;;;;12.90;2.40;;;;;;;23.93;nan;101495.56;5019387;28;20445;-85
2022/06/04 10:24:28;;;;;;;8.63;1.70;;;;;;;24.39;nan;101499.66;5003240;28;20509;-85
2022/06/04 10:27:04;;;;;;;8.30;2.37;;;;;;;24.68;nan;101495.38;5003573;28;20446;-84
2022/06/04 10:29:53;;;;;;;12.90;2.20;;;;;;;24.79;nan;101493.50;5053126;28;20454;-84
2022/06/04 10:32:23;;;;;;;15.53;2.30;;;;;;;25.03;nan;101485.53;5053132;28;20849;-85
2022/06/04 10:35:20;;;;;;;11.90;2.50;;;;;;;25.02;nan;101504.28;5038346;28;20442;-87
2022/06/04 10:38:22;;;;;;;10.27;2.00;;;;;;;24.76;nan;101508.88;5051700;28;20539;-87
2022/06/04 10:40:53;;;;;;;11.30;2.20;;;;;;;24.43;nan;101512.84;5035548;28;20461;-87
2022/06/04 10:44:04;;;;;;;13.27;2.60;;;;;;;24.12;nan;101508.03;5038053;28;20444;-86
2022/06/04 10:46:39;;;;;;;12.40;2.77;;;;;;;23.94;nan;101516.81;5037933;28;20462;-87
2022/06/04 10:49:25;;;;;;;9.47;2.33;;;;;;;23.80;nan;101521.13;5035453;28;20465;-88
2022/06/04 10:52:00;;;;;;;11.93;2.40;;;;;;;23.66;nan;101521.56;5051569;28;20451;-87
2022/06/04 10:54:33;;;;;;;10.27;2.17;;;;;;;23.63;nan;101524.84;5029743;28;20473;-86
2022/06/04 10:57:25;;;;;;;14.50;2.20;;;;;;;23.69;nan;101522.94;5035107;28;20508;-86
2022/06/04 11:00:18;;;;;;;10.00;1.50;;;;;;;23.79;nan;101527.81;5035161;28;20649;-87
2022/06/04 11:03:32;;;;;;;8.13;1.60;;;;;;;23.77;nan;101523.34;5054791;28;20503;-87
2022/06/04 11:06:11;;;;;;;7.67;1.30;;;;;;;23.80;nan;101529.50;4996179;28;20591;-87
2022/06/04 11:08:51;;;;;;;10.27;1.80;;;;;;;23.87;nan;101530.97;5010781;28;20456;-88
2022/06/04 11:11:53;;;;;;;12.17;1.60;;;;;;;23.94;nan;101523.22;4989998;28;20455;-87
2022/06/04 11:14:44;;;;;;;16.00;2.20;;;;;;;24.19;nan;101538.56;4999840;28;20458;-86
2022/06/04 11:17:38;;;;;;;10.43;2.20;;;;;;;24.34;nan;101524.75;4982335;28;20475;-88
2022/06/04 11:20:12;;;;;;;12.63;1.87;;;;;;;24.37;nan;101519.47;5014615;28;20456;-87
2022/06/04 11:22:44;;;;;;;8.30;1.60;;;;;;;24.31;nan;101526.13;4997880;28;20456;-87
2022/06/04 11:25:15;;;;;;;13.23;2.50;;;;;;;24.32;nan;101526.97;4998585;28;20480;-86
2022/06/04 11:27:50;;;;;;;10.40;2.43;;;;;;;24.26;nan;101522.44;4997505;28;20456;-87
2022/06/04 11:30:20;;;;;;;11.00;1.83;;;;;;;24.32;nan;101526.97;4993721;28;20444;-87
2022/06/04 11:32:58;;;;;;;15.07;2.93;;;;;;;24.27;nan;101526.91;4979828;28;20931;-87
2022/06/04 11:35:30;;;;;;;8.53;1.53;;;;;;;24.03;nan;101527.25;5014338;28;20855;-87
2022/06/04 11:38:16;;;;;;;12.50;1.90;;;;;;;23.91;nan;101526.53;5054708;28;20458;-86
2022/06/04 13:42:35;;;;;;;5.27;1.37;;;;;;;26.23;59.66;101516.16;5066741;28;20454;-88
2022/06/04 14:50:28;;;;;;;6.17;1.17;;;;;;;28.37;49.94;101536.78;4745956;30;21141;-88
